sensor_id;sensor_type;location;lat;lon;timestamp;temperature;humidity
49731;DHT22;35622;52.008;5.426;2022-12-07T00:00:29;7.60;73.60
49731;DHT22;35622;52.008;5.426;2022-12-07T00:02:55;7.50;73.50
49731;DHT22;35622;52.008;5.426;2022-12-07T00:05:20;7.60;73.40
49731;DHT22;35622;52.008;5.426;2022-12-07T00:07:46;7.60;72.50
49731;DHT22;35622;52.008;5.426;2022-12-07T00:10:11;7.40;72.50
49731;DHT22;35622;52.008;5.426;2022-12-07T00:12:37;7.40;73.50
49731;DHT22;35622;52.008;5.426;2022-12-07T00:15:03;7.30;73.50
49731;DHT22;35622;52.008;5.426;2022-12-07T00:17:28;7.40;74.00
49731;DHT22;35622;52.008;5.426;2022-12-07T00:19:54;7.30;74.10
49731;DHT22;35622;52.008;5.426;2022-12-07T00:22:19;7.50;73.60
49731;DHT22;35622;52.008;5.426;2022-12-07T00:24:45;7.70;73.20
49731;DHT22;35622;52.008;5.426;2022-12-07T00:27:10;7.60;73.30
49731;DHT22;35622;52.008;5.426;2022-12-07T00:29:36;7.60;73.50
49731;DHT22;35622;52.008;5.426;2022-12-07T00:32:02;7.60;73.70
49731;DHT22;35622;52.008;5.426;2022-12-07T00:34:28;7.50;74.00
49731;DHT22;35622;52.008;5.426;2022-12-07T00:36:54;7.30;73.80
49731;DHT22;35622;52.008;5.426;2022-12-07T00:39:19;7.40;74.00
49731;DHT22;35622;52.008;5.426;2022-12-07T00:41:45;7.30;73.80
49731;DHT22;35622;52.008;5.426;2022-12-07T00:44:10;7.30;73.70
49731;DHT22;35622;52.008;5.426;2022-12-07T00:46:36;7.30;73.40
49731;DHT22;35622;52.008;5.426;2022-12-07T00:49:02;7.20;73.40
49731;DHT22;35622;52.008;5.426;2022-12-07T00:51:28;7.10;73.80
49731;DHT22;35622;52.008;5.426;2022-12-07T00:53:54;7.00;73.80
49731;DHT22;35622;52.008;5.426;2022-12-07T00:56:24;7.10;73.70
49731;DHT22;35622;52.008;5.426;2022-12-07T00:58:56;7.10;73.20
49731;DHT22;35622;52.008;5.426;2022-12-07T01:01:22;7.10;72.30
49731;DHT22;35622;52.008;5.426;2022-12-07T01:03:48;6.90;72.80
49731;DHT22;35622;52.008;5.426;2022-12-07T01:06:18;6.90;73.20
49731;DHT22;35622;52.008;5.426;2022-12-07T01:08:44;6.80;73.50
49731;DHT22;35622;52.008;5.426;2022-12-07T01:11:13;6.80;73.60
49731;DHT22;35622;52.008;5.426;2022-12-07T01:13:39;6.60;73.50
49731;DHT22;35622;52.008;5.426;2022-12-07T01:16:06;6.70;73.40
49731;DHT22;35622;52.008;5.426;2022-12-07T01:18:34;6.60;73.20
49731;DHT22;35622;52.008;5.426;2022-12-07T01:21:09;6.60;73.30
49731;DHT22;35622;52.008;5.426;2022-12-07T01:23:36;6.40;73.40
49731;DHT22;35622;52.008;5.426;2022-12-07T01:26:05;6.50;73.30
49731;DHT22;35622;52.008;5.426;2022-12-07T01:28:31;6.50;73.10
49731;DHT22;35622;52.008;5.426;2022-12-07T01:33:32;6.40;73.00
49731;DHT22;35622;52.008;5.426;2022-12-07T01:36:04;6.30;73.20
49731;DHT22;35622;52.008;5.426;2022-12-07T01:38:30;6.30;73.50
49731;DHT22;35622;52.008;5.426;2022-12-07T01:40:56;6.40;73.20
49731;DHT22;35622;52.008;5.426;2022-12-07T01:43:22;6.40;73.10
49731;DHT22;35622;52.008;5.426;2022-12-07T01:45:49;6.40;73.30
49731;DHT22;35622;52.008;5.426;2022-12-07T01:48:16;6.30;73.80
49731;DHT22;35622;52.008;5.426;2022-12-07T01:50:44;6.30;74.10
49731;DHT22;35622;52.008;5.426;2022-12-07T01:53:12;6.20;73.90
49731;DHT22;35622;52.008;5.426;2022-12-07T01:55:41;6.20;74.20
49731;DHT22;35622;52.008;5.426;2022-12-07T01:58:08;6.20;73.20
49731;DHT22;35622;52.008;5.426;2022-12-07T02:00:34;6.10;73.80
49731;DHT22;35622;52.008;5.426;2022-12-07T02:03:09;6.00;74.00
49731;DHT22;35622;52.008;5.426;2022-12-07T02:05:38;6.10;73.60
49731;DHT22;35622;52.008;5.426;2022-12-07T02:08:05;6.00;73.80
49731;DHT22;35622;52.008;5.426;2022-12-07T02:10:32;6.00;73.70
49731;DHT22;35622;52.008;5.426;2022-12-07T02:13:08;5.90;73.60
49731;DHT22;35622;52.008;5.426;2022-12-07T02:21:15;5.90;73.60
49731;DHT22;35622;52.008;5.426;2022-12-07T02:32:19;5.80;73.60
49731;DHT22;35622;52.008;5.426;2022-12-07T02:34:58;6.00;73.10
49731;DHT22;35622;52.008;5.426;2022-12-07T02:37:35;5.90;73.10
49731;DHT22;35622;52.008;5.426;2022-12-07T02:40:22;6.00;73.50
49731;DHT22;35622;52.008;5.426;2022-12-07T02:43:01;6.00;74.50
49731;DHT22;35622;52.008;5.426;2022-12-07T02:45:30;6.10;74.90
49731;DHT22;35622;52.008;5.426;2022-12-07T02:47:58;6.20;75.10
49731;DHT22;35622;52.008;5.426;2022-12-07T02:50:25;6.20;75.10
49731;DHT22;35622;52.008;5.426;2022-12-07T02:52:51;6.20;75.30
49731;DHT22;35622;52.008;5.426;2022-12-07T02:55:20;6.20;75.30
49731;DHT22;35622;52.008;5.426;2022-12-07T03:00:18;6.30;75.10
49731;DHT22;35622;52.008;5.426;2022-12-07T03:02:58;6.20;75.10
49731;DHT22;35622;52.008;5.426;2022-12-07T03:08:38;6.50;75.10
49731;DHT22;35622;52.008;5.426;2022-12-07T03:14:22;6.60;74.80
49731;DHT22;35622;52.008;5.426;2022-12-07T03:16:57;6.60;74.60
49731;DHT22;35622;52.008;5.426;2022-12-07T03:19:26;6.60;74.80
49731;DHT22;35622;52.008;5.426;2022-12-07T03:21:58;6.70;74.90
49731;DHT22;35622;52.008;5.426;2022-12-07T03:24:29;6.80;74.70
49731;DHT22;35622;52.008;5.426;2022-12-07T03:27:27;6.80;74.30
49731;DHT22;35622;52.008;5.426;2022-12-07T03:30:02;6.80;74.70
49731;DHT22;35622;52.008;5.426;2022-12-07T03:32:59;7.00;73.80
49731;DHT22;35622;52.008;5.426;2022-12-07T03:35:31;7.20;73.00
49731;DHT22;35622;52.008;5.426;2022-12-07T03:38:08;7.10;73.80
49731;DHT22;35622;52.008;5.426;2022-12-07T03:43:24;6.90;74.20
49731;DHT22;35622;52.008;5.426;2022-12-07T03:46:14;6.90;74.20
49731;DHT22;35622;52.008;5.426;2022-12-07T03:55:06;7.00;74.30
49731;DHT22;35622;52.008;5.426;2022-12-07T03:57:30;7.00;75.20
49731;DHT22;35622;52.008;5.426;2022-12-07T03:59:57;7.00;74.10
49731;DHT22;35622;52.008;5.426;2022-12-07T04:02:25;6.90;74.30
49731;DHT22;35622;52.008;5.426;2022-12-07T04:04:51;6.90;74.40
49731;DHT22;35622;52.008;5.426;2022-12-07T04:07:17;6.90;74.10
49731;DHT22;35622;52.008;5.426;2022-12-07T04:09:42;6.80;73.50
49731;DHT22;35622;52.008;5.426;2022-12-07T04:12:08;6.80;73.50
49731;DHT22;35622;52.008;5.426;2022-12-07T04:14:33;6.80;73.80
49731;DHT22;35622;52.008;5.426;2022-12-07T04:16:59;6.90;73.60
49731;DHT22;35622;52.008;5.426;2022-12-07T04:19:31;6.90;73.50
49731;DHT22;35622;52.008;5.426;2022-12-07T04:21:58;6.90;73.50
49731;DHT22;35622;52.008;5.426;2022-12-07T04:24:24;6.90;73.20
49731;DHT22;35622;52.008;5.426;2022-12-07T04:26:49;6.90;73.20
49731;DHT22;35622;52.008;5.426;2022-12-07T04:29:16;6.90;73.20
49731;DHT22;35622;52.008;5.426;2022-12-07T04:31:42;6.90;73.70
49731;DHT22;35622;52.008;5.426;2022-12-07T04:34:08;7.00;73.80
49731;DHT22;35622;52.008;5.426;2022-12-07T04:36:35;7.10;73.60
49731;DHT22;35622;52.008;5.426;2022-12-07T04:39:01;7.10;73.70
49731;DHT22;35622;52.008;5.426;2022-12-07T04:41:27;7.20;73.50
49731;DHT22;35622;52.008;5.426;2022-12-07T04:43:59;7.10;74.50
49731;DHT22;35622;52.008;5.426;2022-12-07T04:46:26;7.00;73.70
49731;DHT22;35622;52.008;5.426;2022-12-07T04:48:53;7.00;73.90
49731;DHT22;35622;52.008;5.426;2022-12-07T04:51:25;7.10;73.10
49731;DHT22;35622;52.008;5.426;2022-12-07T04:53:51;7.10;72.30
49731;DHT22;35622;52.008;5.426;2022-12-07T04:56:18;7.00;72.20
49731;DHT22;35622;52.008;5.426;2022-12-07T04:58:45;6.80;72.20
49731;DHT22;35622;52.008;5.426;2022-12-07T05:01:11;6.50;73.00
49731;DHT22;35622;52.008;5.426;2022-12-07T05:03:37;6.50;73.70
49731;DHT22;35622;52.008;5.426;2022-12-07T05:06:04;6.60;73.30
49731;DHT22;35622;52.008;5.426;2022-12-07T05:08:29;6.80;73.30
49731;DHT22;35622;52.008;5.426;2022-12-07T05:10:55;6.70;73.70
49731;DHT22;35622;52.008;5.426;2022-12-07T05:13:21;6.60;74.80
49731;DHT22;35622;52.008;5.426;2022-12-07T05:15:47;6.70;75.20
49731;DHT22;35622;52.008;5.426;2022-12-07T05:18:13;6.80;75.40
49731;DHT22;35622;52.008;5.426;2022-12-07T05:20:40;6.90;75.40
49731;DHT22;35622;52.008;5.426;2022-12-07T05:23:06;6.90;75.30
49731;DHT22;35622;52.008;5.426;2022-12-07T05:25:31;7.00;75.50
49731;DHT22;35622;52.008;5.426;2022-12-07T05:27:57;7.10;75.40
49731;DHT22;35622;52.008;5.426;2022-12-07T05:30:24;7.10;75.10
49731;DHT22;35622;52.008;5.426;2022-12-07T05:32:49;7.10;74.90
49731;DHT22;35622;52.008;5.426;2022-12-07T05:35:15;7.10;74.10
49731;DHT22;35622;52.008;5.426;2022-12-07T05:37:41;7.00;74.00
49731;DHT22;35622;52.008;5.426;2022-12-07T05:40:07;6.90;74.00
49731;DHT22;35622;52.008;5.426;2022-12-07T05:42:33;6.80;74.30
49731;DHT22;35622;52.008;5.426;2022-12-07T05:44:58;6.80;73.80
49731;DHT22;35622;52.008;5.426;2022-12-07T05:47:24;6.70;73.70
49731;DHT22;35622;52.008;5.426;2022-12-07T05:49:49;6.60;73.90
49731;DHT22;35622;52.008;5.426;2022-12-07T05:52:15;6.70;73.50
49731;DHT22;35622;52.008;5.426;2022-12-07T05:54:40;6.60;73.20
49731;DHT22;35622;52.008;5.426;2022-12-07T05:57:06;6.60;73.00
49731;DHT22;35622;52.008;5.426;2022-12-07T05:59:32;6.50;72.80
49731;DHT22;35622;52.008;5.426;2022-12-07T06:02:15;6.40;72.70
49731;DHT22;35622;52.008;5.426;2022-12-07T06:04:44;6.40;72.80
49731;DHT22;35622;52.008;5.426;2022-12-07T06:07:11;6.30;72.90
49731;DHT22;35622;52.008;5.426;2022-12-07T06:09:38;6.10;73.20
49731;DHT22;35622;52.008;5.426;2022-12-07T06:12:05;6.10;73.30
49731;DHT22;35622;52.008;5.426;2022-12-07T06:14:49;6.00;73.80
49731;DHT22;35622;52.008;5.426;2022-12-07T06:17:15;6.00;73.60
49731;DHT22;35622;52.008;5.426;2022-12-07T06:19:41;6.10;73.80
49731;DHT22;35622;52.008;5.426;2022-12-07T06:22:07;6.10;73.50
49731;DHT22;35622;52.008;5.426;2022-12-07T06:24:34;6.20;73.60
49731;DHT22;35622;52.008;5.426;2022-12-07T06:27:00;6.20;73.40
49731;DHT22;35622;52.008;5.426;2022-12-07T06:29:25;6.20;73.80
49731;DHT22;35622;52.008;5.426;2022-12-07T06:31:51;6.30;73.70
49731;DHT22;35622;52.008;5.426;2022-12-07T06:34:19;6.30;73.50
49731;DHT22;35622;52.008;5.426;2022-12-07T06:36:45;6.20;73.60
49731;DHT22;35622;52.008;5.426;2022-12-07T06:39:16;6.20;73.90
49731;DHT22;35622;52.008;5.426;2022-12-07T06:41:42;6.10;74.30
49731;DHT22;35622;52.008;5.426;2022-12-07T06:44:07;6.10;74.70
49731;DHT22;35622;52.008;5.426;2022-12-07T06:46:33;6.10;74.80
49731;DHT22;35622;52.008;5.426;2022-12-07T06:49:00;6.40;74.90
49731;DHT22;35622;52.008;5.426;2022-12-07T06:51:26;6.40;74.60
49731;DHT22;35622;52.008;5.426;2022-12-07T06:53:51;6.50;74.30
49731;DHT22;35622;52.008;5.426;2022-12-07T06:56:17;6.50;74.00
49731;DHT22;35622;52.008;5.426;2022-12-07T06:58:43;6.40;74.40
49731;DHT22;35622;52.008;5.426;2022-12-07T07:01:10;6.40;74.30
49731;DHT22;35622;52.008;5.426;2022-12-07T07:03:36;6.40;74.40
49731;DHT22;35622;52.008;5.426;2022-12-07T07:06:02;6.40;74.60
49731;DHT22;35622;52.008;5.426;2022-12-07T07:08:28;6.30;73.50
49731;DHT22;35622;52.008;5.426;2022-12-07T07:10:53;6.20;74.00
49731;DHT22;35622;52.008;5.426;2022-12-07T07:13:19;6.20;74.50
49731;DHT22;35622;52.008;5.426;2022-12-07T07:15:45;6.20;74.60
49731;DHT22;35622;52.008;5.426;2022-12-07T07:18:11;6.20;74.40
49731;DHT22;35622;52.008;5.426;2022-12-07T07:20:37;6.20;74.50
49731;DHT22;35622;52.008;5.426;2022-12-07T07:23:03;6.10;74.20
49731;DHT22;35622;52.008;5.426;2022-12-07T07:25:28;6.00;74.10
49731;DHT22;35622;52.008;5.426;2022-12-07T07:27:54;6.00;73.90
49731;DHT22;35622;52.008;5.426;2022-12-07T07:30:19;6.00;73.60
49731;DHT22;35622;52.008;5.426;2022-12-07T07:32:45;5.90;73.80
49731;DHT22;35622;52.008;5.426;2022-12-07T07:35:11;5.90;73.80
49731;DHT22;35622;52.008;5.426;2022-12-07T07:37:36;6.00;73.20
49731;DHT22;35622;52.008;5.426;2022-12-07T07:40:02;5.90;72.80
49731;DHT22;35622;52.008;5.426;2022-12-07T07:42:28;6.00;72.80
49731;DHT22;35622;52.008;5.426;2022-12-07T07:44:53;5.90;72.10
49731;DHT22;35622;52.008;5.426;2022-12-07T07:47:19;5.70;72.60
49731;DHT22;35622;52.008;5.426;2022-12-07T07:49:44;5.70;74.20
49731;DHT22;35622;52.008;5.426;2022-12-07T07:52:10;5.60;73.50
49731;DHT22;35622;52.008;5.426;2022-12-07T07:54:35;5.60;73.70
49731;DHT22;35622;52.008;5.426;2022-12-07T07:57:01;5.90;72.30
49731;DHT22;35622;52.008;5.426;2022-12-07T07:59:26;5.90;71.60
49731;DHT22;35622;52.008;5.426;2022-12-07T08:01:52;5.90;71.50
49731;DHT22;35622;52.008;5.426;2022-12-07T08:04:17;5.90;71.60
49731;DHT22;35622;52.008;5.426;2022-12-07T08:06:43;5.90;71.90
49731;DHT22;35622;52.008;5.426;2022-12-07T08:09:09;5.80;72.30
49731;DHT22;35622;52.008;5.426;2022-12-07T08:11:35;5.80;73.00
49731;DHT22;35622;52.008;5.426;2022-12-07T08:14:02;5.80;73.30
49731;DHT22;35622;52.008;5.426;2022-12-07T08:16:27;5.90;74.00
49731;DHT22;35622;52.008;5.426;2022-12-07T08:18:53;5.90;73.00
49731;DHT22;35622;52.008;5.426;2022-12-07T08:21:18;6.00;72.70
49731;DHT22;35622;52.008;5.426;2022-12-07T08:23:44;6.00;72.30
49731;DHT22;35622;52.008;5.426;2022-12-07T08:26:13;5.90;72.10
49731;DHT22;35622;52.008;5.426;2022-12-07T08:28:39;5.80;72.90
49731;DHT22;35622;52.008;5.426;2022-12-07T08:31:12;5.80;73.00
49731;DHT22;35622;52.008;5.426;2022-12-07T08:33:38;5.80;73.40
49731;DHT22;35622;52.008;5.426;2022-12-07T08:36:05;6.00;72.90
49731;DHT22;35622;52.008;5.426;2022-12-07T08:38:31;6.00;72.30
49731;DHT22;35622;52.008;5.426;2022-12-07T08:40:58;5.90;72.80
49731;DHT22;35622;52.008;5.426;2022-12-07T08:43:24;6.10;73.40
49731;DHT22;35622;52.008;5.426;2022-12-07T08:48:46;6.60;74.10
49731;DHT22;35622;52.008;5.426;2022-12-07T08:51:14;7.00;74.90
49731;DHT22;35622;52.008;5.426;2022-12-07T08:53:40;7.40;74.50
49731;DHT22;35622;52.008;5.426;2022-12-07T08:56:07;7.60;74.50
49731;DHT22;35622;52.008;5.426;2022-12-07T08:58:34;7.70;74.60
49731;DHT22;35622;52.008;5.426;2022-12-07T09:01:00;7.90;73.60
49731;DHT22;35622;52.008;5.426;2022-12-07T09:03:26;7.90;72.90
49731;DHT22;35622;52.008;5.426;2022-12-07T09:05:53;8.00;73.60
49731;DHT22;35622;52.008;5.426;2022-12-07T09:08:19;8.10;73.90
49731;DHT22;35622;52.008;5.426;2022-12-07T09:10:45;8.20;73.50
49731;DHT22;35622;52.008;5.426;2022-12-07T09:13:11;8.30;73.10
49731;DHT22;35622;52.008;5.426;2022-12-07T09:15:37;8.30;73.10
49731;DHT22;35622;52.008;5.426;2022-12-07T09:18:02;8.30;73.70
49731;DHT22;35622;52.008;5.426;2022-12-07T09:20:28;8.40;74.10
49731;DHT22;35622;52.008;5.426;2022-12-07T09:22:54;8.60;73.90
49731;DHT22;35622;52.008;5.426;2022-12-07T09:25:20;8.60;73.60
49731;DHT22;35622;52.008;5.426;2022-12-07T09:27:46;8.80;73.80
49731;DHT22;35622;52.008;5.426;2022-12-07T09:30:11;9.00;73.60
49731;DHT22;35622;52.008;5.426;2022-12-07T09:32:37;9.00;73.50
49731;DHT22;35622;52.008;5.426;2022-12-07T09:35:03;9.20;74.00
49731;DHT22;35622;52.008;5.426;2022-12-07T09:37:28;9.40;74.00
49731;DHT22;35622;52.008;5.426;2022-12-07T09:39:54;9.60;74.20
49731;DHT22;35622;52.008;5.426;2022-12-07T09:42:44;9.80;74.40
49731;DHT22;35622;52.008;5.426;2022-12-07T09:45:31;10.20;74.80
49731;DHT22;35622;52.008;5.426;2022-12-07T09:47:59;10.30;73.60
49731;DHT22;35622;52.008;5.426;2022-12-07T09:50:27;10.40;73.00
49731;DHT22;35622;52.008;5.426;2022-12-07T09:52:55;10.50;72.40
49731;DHT22;35622;52.008;5.426;2022-12-07T09:55:26;10.50;72.00
49731;DHT22;35622;52.008;5.426;2022-12-07T09:57:52;10.50;72.00
49731;DHT22;35622;52.008;5.426;2022-12-07T10:00:21;10.60;72.50
49731;DHT22;35622;52.008;5.426;2022-12-07T10:02:55;10.90;73.00
49731;DHT22;35622;52.008;5.426;2022-12-07T10:05:24;11.00;72.70
49731;DHT22;35622;52.008;5.426;2022-12-07T10:07:51;11.00;72.00
49731;DHT22;35622;52.008;5.426;2022-12-07T10:10:25;11.00;72.10
49731;DHT22;35622;52.008;5.426;2022-12-07T10:13:06;11.20;72.20
49731;DHT22;35622;52.008;5.426;2022-12-07T10:15:42;11.20;72.10
49731;DHT22;35622;52.008;5.426;2022-12-07T10:18:20;11.30;72.30
49731;DHT22;35622;52.008;5.426;2022-12-07T10:20:49;11.50;72.30
49731;DHT22;35622;52.008;5.426;2022-12-07T10:23:24;11.50;71.30
49731;DHT22;35622;52.008;5.426;2022-12-07T10:25:50;11.60;71.20
49731;DHT22;35622;52.008;5.426;2022-12-07T10:28:20;11.60;70.60
49731;DHT22;35622;52.008;5.426;2022-12-07T10:30:50;11.60;69.90
49731;DHT22;35622;52.008;5.426;2022-12-07T10:33:55;11.60;70.40
49731;DHT22;35622;52.008;5.426;2022-12-07T10:41:25;11.90;71.20
49731;DHT22;35622;52.008;5.426;2022-12-07T10:43:53;12.20;72.00
49731;DHT22;35622;52.008;5.426;2022-12-07T10:49:30;12.60;72.10
49731;DHT22;35622;52.008;5.426;2022-12-07T10:54:56;12.70;69.80
49731;DHT22;35622;52.008;5.426;2022-12-07T11:00:18;12.50;68.20
49731;DHT22;35622;52.008;5.426;2022-12-07T11:05:30;13.20;69.30
49731;DHT22;35622;52.008;5.426;2022-12-07T11:19:34;13.30;66.00
49731;DHT22;35622;52.008;5.426;2022-12-07T11:24:34;13.60;64.90
49731;DHT22;35622;52.008;5.426;2022-12-07T11:29:55;13.50;64.60
49731;DHT22;35622;52.008;5.426;2022-12-07T11:35:52;13.50;61.70
49731;DHT22;35622;52.008;5.426;2022-12-07T11:38:26;13.30;63.40
49731;DHT22;35622;52.008;5.426;2022-12-07T11:41:00;13.30;64.10
49731;DHT22;35622;52.008;5.426;2022-12-07T11:46:34;13.20;64.60
49731;DHT22;35622;52.008;5.426;2022-12-07T11:49:33;13.10;65.00
49731;DHT22;35622;52.008;5.426;2022-12-07T11:52:04;13.00;64.60
49731;DHT22;35622;52.008;5.426;2022-12-07T11:54:35;12.90;64.80
49731;DHT22;35622;52.008;5.426;2022-12-07T11:57:14;12.90;64.50
49731;DHT22;35622;52.008;5.426;2022-12-07T11:59:47;12.90;64.20
49731;DHT22;35622;52.008;5.426;2022-12-07T12:02:39;12.80;65.40
49731;DHT22;35622;52.008;5.426;2022-12-07T12:05:11;13.00;65.60
49731;DHT22;35622;52.008;5.426;2022-12-07T12:07:39;13.10;64.50
49731;DHT22;35622;52.008;5.426;2022-12-07T12:15:49;12.80;64.40
49731;DHT22;35622;52.008;5.426;2022-12-07T12:21:01;12.70;64.60
49731;DHT22;35622;52.008;5.426;2022-12-07T12:25:56;12.40;63.40
49731;DHT22;35622;52.008;5.426;2022-12-07T12:33:50;11.90;64.90
49731;DHT22;35622;52.008;5.426;2022-12-07T12:46:55;11.40;67.70
49731;DHT22;35622;52.008;5.426;2022-12-07T12:51:56;11.00;68.80
49731;DHT22;35622;52.008;5.426;2022-12-07T12:54:23;10.90;69.20
49731;DHT22;35622;52.008;5.426;2022-12-07T13:05:16;10.70;70.50
49731;DHT22;35622;52.008;5.426;2022-12-07T13:10:42;10.80;71.10
49731;DHT22;35622;52.008;5.426;2022-12-07T13:15:46;11.00;70.50
49731;DHT22;35622;52.008;5.426;2022-12-07T13:20:57;11.00;70.60
49731;DHT22;35622;52.008;5.426;2022-12-07T13:26:24;11.00;70.70
49731;DHT22;35622;52.008;5.426;2022-12-07T13:31:46;11.10;70.10
49731;DHT22;35622;52.008;5.426;2022-12-07T13:34:36;11.10;70.00
49731;DHT22;35622;52.008;5.426;2022-12-07T13:39:47;11.10;70.70
49731;DHT22;35622;52.008;5.426;2022-12-07T13:44:51;11.30;70.70
49731;DHT22;35622;52.008;5.426;2022-12-07T13:47:35;11.50;70.80
49731;DHT22;35622;52.008;5.426;2022-12-07T13:50:20;11.50;70.50
49731;DHT22;35622;52.008;5.426;2022-12-07T13:52:47;11.50;69.90
49731;DHT22;35622;52.008;5.426;2022-12-07T13:55:16;11.40;69.60
49731;DHT22;35622;52.008;5.426;2022-12-07T13:57:44;11.30;69.60
49731;DHT22;35622;52.008;5.426;2022-12-07T14:00:17;11.30;69.80
49731;DHT22;35622;52.008;5.426;2022-12-07T14:03:19;11.20;70.10
49731;DHT22;35622;52.008;5.426;2022-12-07T14:08:44;11.50;69.80
49731;DHT22;35622;52.008;5.426;2022-12-07T14:11:17;11.50;68.80
49731;DHT22;35622;52.008;5.426;2022-12-07T14:13:51;11.60;68.90
49731;DHT22;35622;52.008;5.426;2022-12-07T14:16:35;11.70;69.10
49731;DHT22;35622;52.008;5.426;2022-12-07T14:19:38;11.60;69.10
49731;DHT22;35622;52.008;5.426;2022-12-07T14:22:15;11.50;69.30
49731;DHT22;35622;52.008;5.426;2022-12-07T14:24:44;11.50;69.10
49731;DHT22;35622;52.008;5.426;2022-12-07T14:27:36;11.50;68.80
49731;DHT22;35622;52.008;5.426;2022-12-07T14:30:03;11.50;68.90
49731;DHT22;35622;52.008;5.426;2022-12-07T14:32:30;11.30;69.00
49731;DHT22;35622;52.008;5.426;2022-12-07T14:34:57;11.10;69.30
49731;DHT22;35622;52.008;5.426;2022-12-07T14:37:24;11.10;69.60
49731;DHT22;35622;52.008;5.426;2022-12-07T14:39:50;10.90;69.30
49731;DHT22;35622;52.008;5.426;2022-12-07T14:42:16;10.80;70.80
49731;DHT22;35622;52.008;5.426;2022-12-07T14:44:42;10.80;69.80
49731;DHT22;35622;52.008;5.426;2022-12-07T14:47:11;10.50;70.70
49731;DHT22;35622;52.008;5.426;2022-12-07T14:49:37;10.70;70.80
49731;DHT22;35622;52.008;5.426;2022-12-07T14:52:03;10.90;69.80
49731;DHT22;35622;52.008;5.426;2022-12-07T14:54:31;10.80;69.80
49731;DHT22;35622;52.008;5.426;2022-12-07T14:56:57;10.70;69.80
49731;DHT22;35622;52.008;5.426;2022-12-07T14:59:23;10.60;70.10
49731;DHT22;35622;52.008;5.426;2022-12-07T15:01:49;10.70;70.00
49731;DHT22;35622;52.008;5.426;2022-12-07T15:04:15;10.60;69.70
49731;DHT22;35622;52.008;5.426;2022-12-07T15:06:40;10.60;69.20
49731;DHT22;35622;52.008;5.426;2022-12-07T15:09:10;10.60;69.00
49731;DHT22;35622;52.008;5.426;2022-12-07T15:11:36;10.60;68.60
49731;DHT22;35622;52.008;5.426;2022-12-07T15:14:02;10.50;69.00
49731;DHT22;35622;52.008;5.426;2022-12-07T15:16:34;10.40;69.30
49731;DHT22;35622;52.008;5.426;2022-12-07T15:19:00;10.20;69.30
49731;DHT22;35622;52.008;5.426;2022-12-07T15:21:26;10.20;69.50
49731;DHT22;35622;52.008;5.426;2022-12-07T15:23:51;10.10;69.40
49731;DHT22;35622;52.008;5.426;2022-12-07T15:26:17;10.10;69.50
49731;DHT22;35622;52.008;5.426;2022-12-07T15:28:43;10.10;69.30
49731;DHT22;35622;52.008;5.426;2022-12-07T15:31:12;9.90;69.10
49731;DHT22;35622;52.008;5.426;2022-12-07T15:33:38;9.80;69.70
49731;DHT22;35622;52.008;5.426;2022-12-07T15:36:04;9.80;70.10
49731;DHT22;35622;52.008;5.426;2022-12-07T15:38:30;9.80;70.40
49731;DHT22;35622;52.008;5.426;2022-12-07T15:40:56;9.80;70.10
49731;DHT22;35622;52.008;5.426;2022-12-07T15:43:22;9.70;70.10
49731;DHT22;35622;52.008;5.426;2022-12-07T15:46:06;9.80;71.30
49731;DHT22;35622;52.008;5.426;2022-12-07T15:48:31;9.90;69.60
49731;DHT22;35622;52.008;5.426;2022-12-07T15:51:07;9.80;69.00
49731;DHT22;35622;52.008;5.426;2022-12-07T15:53:34;9.70;69.00
49731;DHT22;35622;52.008;5.426;2022-12-07T15:56:00;9.70;69.20
49731;DHT22;35622;52.008;5.426;2022-12-07T15:58:25;9.50;69.30
49731;DHT22;35622;52.008;5.426;2022-12-07T16:00:51;9.50;69.40
49731;DHT22;35622;52.008;5.426;2022-12-07T16:03:17;9.40;69.40
49731;DHT22;35622;52.008;5.426;2022-12-07T16:05:51;9.40;69.70
49731;DHT22;35622;52.008;5.426;2022-12-07T16:08:17;9.30;69.60
49731;DHT22;35622;52.008;5.426;2022-12-07T16:10:43;9.10;69.80
49731;DHT22;35622;52.008;5.426;2022-12-07T16:13:09;9.00;70.30
49731;DHT22;35622;52.008;5.426;2022-12-07T16:15:39;9.00;70.40
49731;DHT22;35622;52.008;5.426;2022-12-07T16:18:05;9.00;70.30
49731;DHT22;35622;52.008;5.426;2022-12-07T16:20:30;8.90;70.40
49731;DHT22;35622;52.008;5.426;2022-12-07T16:22:56;9.00;70.40
49731;DHT22;35622;52.008;5.426;2022-12-07T16:25:22;8.90;70.00
49731;DHT22;35622;52.008;5.426;2022-12-07T16:27:47;8.80;70.30
49731;DHT22;35622;52.008;5.426;2022-12-07T16:30:14;8.80;70.40
49731;DHT22;35622;52.008;5.426;2022-12-07T16:32:41;8.80;70.30
49731;DHT22;35622;52.008;5.426;2022-12-07T16:35:08;8.80;70.50
49731;DHT22;35622;52.008;5.426;2022-12-07T16:37:33;8.80;70.60
49731;DHT22;35622;52.008;5.426;2022-12-07T16:39:59;8.70;70.50
49731;DHT22;35622;52.008;5.426;2022-12-07T16:42:25;8.60;71.00
49731;DHT22;35622;52.008;5.426;2022-12-07T16:44:50;8.50;71.20
49731;DHT22;35622;52.008;5.426;2022-12-07T16:47:16;8.60;71.70
49731;DHT22;35622;52.008;5.426;2022-12-07T16:49:43;8.50;71.80
49731;DHT22;35622;52.008;5.426;2022-12-07T16:52:08;8.60;71.80
49731;DHT22;35622;52.008;5.426;2022-12-07T16:54:35;8.50;71.70
49731;DHT22;35622;52.008;5.426;2022-12-07T16:57:01;8.60;71.60
49731;DHT22;35622;52.008;5.426;2022-12-07T16:59:27;8.60;71.40
49731;DHT22;35622;52.008;5.426;2022-12-07T17:01:52;8.50;71.50
49731;DHT22;35622;52.008;5.426;2022-12-07T17:04:18;8.60;71.40
49731;DHT22;35622;52.008;5.426;2022-12-07T17:06:43;8.60;71.10
49731;DHT22;35622;52.008;5.426;2022-12-07T17:09:09;8.60;71.10
49731;DHT22;35622;52.008;5.426;2022-12-07T17:11:37;8.50;71.20
49731;DHT22;35622;52.008;5.426;2022-12-07T17:14:03;8.60;71.50
49731;DHT22;35622;52.008;5.426;2022-12-07T17:16:56;8.60;71.10
49731;DHT22;35622;52.008;5.426;2022-12-07T17:19:22;8.60;70.90
49731;DHT22;35622;52.008;5.426;2022-12-07T17:21:47;8.70;70.70
49731;DHT22;35622;52.008;5.426;2022-12-07T17:24:14;8.60;70.40
49731;DHT22;35622;52.008;5.426;2022-12-07T17:26:42;8.60;70.50
49731;DHT22;35622;52.008;5.426;2022-12-07T17:29:08;8.50;70.90
49731;DHT22;35622;52.008;5.426;2022-12-07T17:31:34;8.30;71.20
49731;DHT22;35622;52.008;5.426;2022-12-07T17:34:00;8.30;71.70
49731;DHT22;35622;52.008;5.426;2022-12-07T17:36:27;8.30;72.10
49731;DHT22;35622;52.008;5.426;2022-12-07T17:38:54;8.50;71.70
49731;DHT22;35622;52.008;5.426;2022-12-07T17:41:23;8.60;70.90
49731;DHT22;35622;52.008;5.426;2022-12-07T17:44:10;8.60;70.70
49731;DHT22;35622;52.008;5.426;2022-12-07T17:46:37;8.50;71.70
49731;DHT22;35622;52.008;5.426;2022-12-07T17:49:03;8.50;71.10
49731;DHT22;35622;52.008;5.426;2022-12-07T17:51:29;8.50;71.40
49731;DHT22;35622;52.008;5.426;2022-12-07T17:54:13;8.40;71.60
49731;DHT22;35622;52.008;5.426;2022-12-07T17:56:52;8.40;71.40
49731;DHT22;35622;52.008;5.426;2022-12-07T17:59:18;8.40;71.60
49731;DHT22;35622;52.008;5.426;2022-12-07T18:01:44;8.20;72.00
49731;DHT22;35622;52.008;5.426;2022-12-07T18:04:09;8.30;72.40
49731;DHT22;35622;52.008;5.426;2022-12-07T18:06:35;8.30;72.60
49731;DHT22;35622;52.008;5.426;2022-12-07T18:09:01;8.30;72.60